sensor_id;sensor_type;location;lat;lon;timestamp;temperature;humidity
13416;DHT22;6779;50.150;8.680;2022-11-03T00:02:23;9.40;99.90
13416;DHT22;6779;50.150;8.680;2022-11-03T00:04:49;9.40;99.90
13416;DHT22;6779;50.150;8.680;2022-11-03T00:07:21;9.30;1.00
13416;DHT22;6779;50.150;8.680;2022-11-03T00:09:47;9.30;99.90
13416;DHT22;6779;50.150;8.680;2022-11-03T00:12:13;9.20;99.90
13416;DHT22;6779;50.150;8.680;2022-11-03T00:14:38;9.30;99.90
13416;DHT22;6779;50.150;8.680;2022-11-03T00:17:04;9.40;99.90
13416;DHT22;6779;50.150;8.680;2022-11-03T00:19:29;9.30;99.90
13416;DHT22;6779;50.150;8.680;2022-11-03T00:21:55;9.30;61.60
13416;DHT22;6779;50.150;8.680;2022-11-03T00:24:23;9.30;99.90
13416;DHT22;6779;50.150;8.680;2022-11-03T00:26:49;9.40;99.90
13416;DHT22;6779;50.150;8.680;2022-11-03T00:29:14;9.40;99.90
13416;DHT22;6779;50.150;8.680;2022-11-03T00:31:42;9.30;99.90
13416;DHT22;6779;50.150;8.680;2022-11-03T00:34:08;9.40;99.90
13416;DHT22;6779;50.150;8.680;2022-11-03T00:36:38;9.50;99.90
13416;DHT22;6779;50.150;8.680;2022-11-03T00:39:06;9.50;99.90
13416;DHT22;6779;50.150;8.680;2022-11-03T00:41:32;9.50;99.90
13416;DHT22;6779;50.150;8.680;2022-11-03T00:43:58;9.60;99.90
13416;DHT22;6779;50.150;8.680;2022-11-03T00:46:24;9.60;99.90
13416;DHT22;6779;50.150;8.680;2022-11-03T00:48:50;9.60;99.90
13416;DHT22;6779;50.150;8.680;2022-11-03T00:51:17;9.70;35.80
13416;DHT22;6779;50.150;8.680;2022-11-03T00:53:45;9.60;99.90
13416;DHT22;6779;50.150;8.680;2022-11-03T00:56:13;9.60;1.00
13416;DHT22;6779;50.150;8.680;2022-11-03T00:58:40;9.60;99.90
13416;DHT22;6779;50.150;8.680;2022-11-03T01:01:12;9.50;99.90
13416;DHT22;6779;50.150;8.680;2022-11-03T01:03:41;9.60;99.90
13416;DHT22;6779;50.150;8.680;2022-11-03T01:06:08;9.50;99.90
13416;DHT22;6779;50.150;8.680;2022-11-03T01:08:53;9.30;99.90
13416;DHT22;6779;50.150;8.680;2022-11-03T01:11:21;8.90;99.90
13416;DHT22;6779;50.150;8.680;2022-11-03T01:14:06;8.70;99.90
13416;DHT22;6779;50.150;8.680;2022-11-03T01:16:33;8.70;99.90
13416;DHT22;6779;50.150;8.680;2022-11-03T01:18:59;8.60;99.90
13416;DHT22;6779;50.150;8.680;2022-11-03T01:21:24;8.60;1.00
13416;DHT22;6779;50.150;8.680;2022-11-03T01:23:50;8.50;1.00
13416;DHT22;6779;50.150;8.680;2022-11-03T01:26:16;8.50;1.00
13416;DHT22;6779;50.150;8.680;2022-11-03T01:28:44;8.50;1.00
13416;DHT22;6779;50.150;8.680;2022-11-03T01:31:16;8.50;1.00
13416;DHT22;6779;50.150;8.680;2022-11-03T01:33:42;8.50;1.00
13416;DHT22;6779;50.150;8.680;2022-11-03T01:36:10;8.50;1.00
13416;DHT22;6779;50.150;8.680;2022-11-03T01:38:36;8.60;1.00
13416;DHT22;6779;50.150;8.680;2022-11-03T01:41:04;8.60;99.90
13416;DHT22;6779;50.150;8.680;2022-11-03T01:43:30;8.50;99.90
13416;DHT22;6779;50.150;8.680;2022-11-03T01:48:40;8.30;1.00
13416;DHT22;6779;50.150;8.680;2022-11-03T01:51:07;8.30;1.00
13416;DHT22;6779;50.150;8.680;2022-11-03T01:53:34;8.20;1.00
13416;DHT22;6779;50.150;8.680;2022-11-03T01:56:01;8.20;1.00
13416;DHT22;6779;50.150;8.680;2022-11-03T01:58:32;8.30;1.00
13416;DHT22;6779;50.150;8.680;2022-11-03T02:00:59;8.20;1.00
13416;DHT22;6779;50.150;8.680;2022-11-03T02:03:27;8.20;1.00
13416;DHT22;6779;50.150;8.680;2022-11-03T02:05:55;8.20;1.00
13416;DHT22;6779;50.150;8.680;2022-11-03T02:08:34;8.20;1.00
13416;DHT22;6779;50.150;8.680;2022-11-03T02:11:01;8.20;1.00
13416;DHT22;6779;50.150;8.680;2022-11-03T02:13:50;8.10;1.00
13416;DHT22;6779;50.150;8.680;2022-11-03T02:16:16;8.10;1.00
13416;DHT22;6779;50.150;8.680;2022-11-03T02:18:42;8.10;1.00
13416;DHT22;6779;50.150;8.680;2022-11-03T02:21:23;8.10;1.00
13416;DHT22;6779;50.150;8.680;2022-11-03T02:26:22;8.20;14.10
13416;DHT22;6779;50.150;8.680;2022-11-03T02:28:48;8.20;1.00
13416;DHT22;6779;50.150;8.680;2022-11-03T02:31:33;8.10;1.00
13416;DHT22;6779;50.150;8.680;2022-11-03T02:34:26;8.10;1.00
13416;DHT22;6779;50.150;8.680;2022-11-03T02:36:55;8.00;1.00
13416;DHT22;6779;50.150;8.680;2022-11-03T02:40:15;7.90;1.00
13416;DHT22;6779;50.150;8.680;2022-11-03T02:42:16;7.90;1.00
13416;DHT22;6779;50.150;8.680;2022-11-03T02:44:45;7.90;1.00
13416;DHT22;6779;50.150;8.680;2022-11-03T02:47:12;7.90;1.00
13416;DHT22;6779;50.150;8.680;2022-11-03T02:49:47;7.80;1.00
13416;DHT22;6779;50.150;8.680;2022-11-03T02:52:33;7.90;1.00
13416;DHT22;6779;50.150;8.680;2022-11-03T02:57:35;7.70;16.30
13416;DHT22;6779;50.150;8.680;2022-11-03T03:00:05;7.80;38.00
13416;DHT22;6779;50.150;8.680;2022-11-03T03:02:48;7.80;1.00
13416;DHT22;6779;50.150;8.680;2022-11-03T03:05:16;7.80;1.00
13416;DHT22;6779;50.150;8.680;2022-11-03T03:07:49;7.80;1.00
13416;DHT22;6779;50.150;8.680;2022-11-03T03:10:19;7.80;1.00
13416;DHT22;6779;50.150;8.680;2022-11-03T03:12:52;7.70;1.00
13416;DHT22;6779;50.150;8.680;2022-11-03T03:15:26;7.70;1.00
13416;DHT22;6779;50.150;8.680;2022-11-03T03:18:00;7.80;1.00
13416;DHT22;6779;50.150;8.680;2022-11-03T03:20:37;7.80;1.00
13416;DHT22;6779;50.150;8.680;2022-11-03T03:23:13;7.80;24.30
13416;DHT22;6779;50.150;8.680;2022-11-03T03:25:48;7.80;8.90
13416;DHT22;6779;50.150;8.680;2022-11-03T03:28:22;7.90;15.30
13416;DHT22;6779;50.150;8.680;2022-11-03T03:30:49;8.00;1.00
13416;DHT22;6779;50.150;8.680;2022-11-03T03:33:16;7.90;1.00
13416;DHT22;6779;50.150;8.680;2022-11-03T03:35:45;7.90;1.00
13416;DHT22;6779;50.150;8.680;2022-11-03T03:38:25;7.90;8.40
13416;DHT22;6779;50.150;8.680;2022-11-03T03:40:54;7.90;18.20
13416;DHT22;6779;50.150;8.680;2022-11-03T03:43:22;7.90;1.00
13416;DHT22;6779;50.150;8.680;2022-11-03T03:45:51;7.90;24.20
13416;DHT22;6779;50.150;8.680;2022-11-03T03:48:19;7.90;69.00
13416;DHT22;6779;50.150;8.680;2022-11-03T03:50:46;7.90;35.40
13416;DHT22;6779;50.150;8.680;2022-11-03T03:53:15;7.90;1.00
13416;DHT22;6779;50.150;8.680;2022-11-03T03:55:44;7.90;1.00
13416;DHT22;6779;50.150;8.680;2022-11-03T03:58:12;7.90;1.00
13416;DHT22;6779;50.150;8.680;2022-11-03T04:00:38;7.80;1.00
13416;DHT22;6779;50.150;8.680;2022-11-03T04:03:05;7.70;1.00
13416;DHT22;6779;50.150;8.680;2022-11-03T04:05:30;7.50;1.00
13416;DHT22;6779;50.150;8.680;2022-11-03T04:07:56;7.50;1.00
13416;DHT22;6779;50.150;8.680;2022-11-03T04:10:23;7.50;1.00
13416;DHT22;6779;50.150;8.680;2022-11-03T04:12:49;7.60;1.00
13416;DHT22;6779;50.150;8.680;2022-11-03T04:15:34;7.50;1.00
13416;DHT22;6779;50.150;8.680;2022-11-03T04:18:20;7.40;1.00
13416;DHT22;6779;50.150;8.680;2022-11-03T04:21:05;7.40;1.00
13416;DHT22;6779;50.150;8.680;2022-11-03T04:23:49;7.40;11.20
13416;DHT22;6779;50.150;8.680;2022-11-03T04:26:17;7.50;10.30
13416;DHT22;6779;50.150;8.680;2022-11-03T04:28:43;7.40;1.00
13416;DHT22;6779;50.150;8.680;2022-11-03T04:31:13;7.50;1.00
13416;DHT22;6779;50.150;8.680;2022-11-03T04:33:39;7.40;1.00
13416;DHT22;6779;50.150;8.680;2022-11-03T04:36:18;7.30;1.00
13416;DHT22;6779;50.150;8.680;2022-11-03T04:38:44;7.30;1.00
13416;DHT22;6779;50.150;8.680;2022-11-03T04:41:30;7.20;1.00
13416;DHT22;6779;50.150;8.680;2022-11-03T04:43:56;7.20;1.00
13416;DHT22;6779;50.150;8.680;2022-11-03T04:46:27;7.20;1.00
13416;DHT22;6779;50.150;8.680;2022-11-03T04:48:57;7.10;1.00
13416;DHT22;6779;50.150;8.680;2022-11-03T04:51:24;7.10;1.00
13416;DHT22;6779;50.150;8.680;2022-11-03T04:53:57;7.00;1.00
13416;DHT22;6779;50.150;8.680;2022-11-03T04:56:24;7.10;1.00
13416;DHT22;6779;50.150;8.680;2022-11-03T04:58:51;7.10;1.00
13416;DHT22;6779;50.150;8.680;2022-11-03T05:01:19;7.00;1.00
13416;DHT22;6779;50.150;8.680;2022-11-03T05:03:48;7.00;1.00
13416;DHT22;6779;50.150;8.680;2022-11-03T05:06:15;6.90;1.10
13416;DHT22;6779;50.150;8.680;2022-11-03T05:08:44;6.90;1.00
13416;DHT22;6779;50.150;8.680;2022-11-03T05:11:20;7.00;1.00
13416;DHT22;6779;50.150;8.680;2022-11-03T05:13:47;6.90;1.00
13416;DHT22;6779;50.150;8.680;2022-11-03T05:16:13;6.80;1.00
13416;DHT22;6779;50.150;8.680;2022-11-03T05:18:42;6.80;1.00
13416;DHT22;6779;50.150;8.680;2022-11-03T05:21:11;6.80;14.70
13416;DHT22;6779;50.150;8.680;2022-11-03T05:23:40;6.80;25.20
13416;DHT22;6779;50.150;8.680;2022-11-03T05:26:17;6.80;30.00
13416;DHT22;6779;50.150;8.680;2022-11-03T05:28:49;6.90;64.30
13416;DHT22;6779;50.150;8.680;2022-11-03T05:33:47;6.90;43.90
13416;DHT22;6779;50.150;8.680;2022-11-03T05:36:18;7.00;36.50
13416;DHT22;6779;50.150;8.680;2022-11-03T05:38:44;7.00;1.00
13416;DHT22;6779;50.150;8.680;2022-11-03T05:41:24;7.00;1.00
13416;DHT22;6779;50.150;8.680;2022-11-03T05:43:55;6.80;1.00
13416;DHT22;6779;50.150;8.680;2022-11-03T05:46:21;6.90;1.00
13416;DHT22;6779;50.150;8.680;2022-11-03T05:48:47;6.80;1.00
13416;DHT22;6779;50.150;8.680;2022-11-03T05:51:36;6.80;1.00
13416;DHT22;6779;50.150;8.680;2022-11-03T05:54:04;6.80;1.00
13416;DHT22;6779;50.150;8.680;2022-11-03T05:56:32;6.80;1.00
13416;DHT22;6779;50.150;8.680;2022-11-03T05:59:00;6.80;1.00
13416;DHT22;6779;50.150;8.680;2022-11-03T06:01:31;6.70;1.00
13416;DHT22;6779;50.150;8.680;2022-11-03T06:03:59;6.70;2.60
13416;DHT22;6779;50.150;8.680;2022-11-03T06:06:33;6.80;23.50
13416;DHT22;6779;50.150;8.680;2022-11-03T06:09:12;6.70;16.00
13416;DHT22;6779;50.150;8.680;2022-11-03T06:11:39;6.80;29.00
13416;DHT22;6779;50.150;8.680;2022-11-03T06:14:19;6.80;21.90
13416;DHT22;6779;50.150;8.680;2022-11-03T06:16:59;6.80;6.00
13416;DHT22;6779;50.150;8.680;2022-11-03T06:19:41;6.80;1.20
13416;DHT22;6779;50.150;8.680;2022-11-03T06:22:28;6.80;1.60
13416;DHT22;6779;50.150;8.680;2022-11-03T06:24:58;6.70;1.00
13416;DHT22;6779;50.150;8.680;2022-11-03T06:27:26;6.80;7.40
13416;DHT22;6779;50.150;8.680;2022-11-03T06:29:56;6.80;25.50
13416;DHT22;6779;50.150;8.680;2022-11-03T06:32:22;6.80;25.60
13416;DHT22;6779;50.150;8.680;2022-11-03T06:34:50;6.80;9.60
13416;DHT22;6779;50.150;8.680;2022-11-03T06:37:25;6.90;19.70
13416;DHT22;6779;50.150;8.680;2022-11-03T06:39:59;6.90;1.30
13416;DHT22;6779;50.150;8.680;2022-11-03T06:42:28;7.00;1.00
13416;DHT22;6779;50.150;8.680;2022-11-03T06:44:55;7.00;1.00
13416;DHT22;6779;50.150;8.680;2022-11-03T06:47:23;7.00;32.10
13416;DHT22;6779;50.150;8.680;2022-11-03T06:49:55;7.10;11.80
13416;DHT22;6779;50.150;8.680;2022-11-03T06:52:31;7.10;1.00
13416;DHT22;6779;50.150;8.680;2022-11-03T06:57:40;7.10;1.00
13416;DHT22;6779;50.150;8.680;2022-11-03T07:00:19;7.00;1.00
13416;DHT22;6779;50.150;8.680;2022-11-03T07:02:52;7.10;1.00
13416;DHT22;6779;50.150;8.680;2022-11-03T07:05:27;7.10;1.00
13416;DHT22;6779;50.150;8.680;2022-11-03T07:07:56;7.20;1.00
13416;DHT22;6779;50.150;8.680;2022-11-03T07:10:29;7.20;1.00
13416;DHT22;6779;50.150;8.680;2022-11-03T07:12:57;7.10;1.00
13416;DHT22;6779;50.150;8.680;2022-11-03T07:15:32;7.20;1.00
13416;DHT22;6779;50.150;8.680;2022-11-03T07:18:00;7.20;1.30
13416;DHT22;6779;50.150;8.680;2022-11-03T07:20:26;7.30;1.00
13416;DHT22;6779;50.150;8.680;2022-11-03T07:22:52;7.30;1.00
13416;DHT22;6779;50.150;8.680;2022-11-03T07:25:20;7.40;1.00
13416;DHT22;6779;50.150;8.680;2022-11-03T07:27:49;7.50;1.00
13416;DHT22;6779;50.150;8.680;2022-11-03T07:30:25;7.60;1.00
13416;DHT22;6779;50.150;8.680;2022-11-03T07:32:59;7.70;1.00
13416;DHT22;6779;50.150;8.680;2022-11-03T07:38:01;7.90;1.00
13416;DHT22;6779;50.150;8.680;2022-11-03T07:40:27;7.90;1.00
13416;DHT22;6779;50.150;8.680;2022-11-03T07:42:58;8.00;1.00
13416;DHT22;6779;50.150;8.680;2022-11-03T07:48:09;8.20;1.00
13416;DHT22;6779;50.150;8.680;2022-11-03T07:50:37;8.20;1.00
13416;DHT22;6779;50.150;8.680;2022-11-03T07:53:12;8.30;1.00
13416;DHT22;6779;50.150;8.680;2022-11-03T07:55:38;8.30;1.00
13416;DHT22;6779;50.150;8.680;2022-11-03T07:58:23;8.30;1.00
13416;DHT22;6779;50.150;8.680;2022-11-03T08:00:53;8.40;1.00
13416;DHT22;6779;50.150;8.680;2022-11-03T08:03:29;8.50;1.00
13416;DHT22;6779;50.150;8.680;2022-11-03T08:05:57;8.80;1.00
13416;DHT22;6779;50.150;8.680;2022-11-03T08:08:22;9.00;1.00
13416;DHT22;6779;50.150;8.680;2022-11-03T08:10:48;9.20;1.00
13416;DHT22;6779;50.150;8.680;2022-11-03T08:13:13;9.40;1.00
13416;DHT22;6779;50.150;8.680;2022-11-03T08:15:39;9.50;1.00
13416;DHT22;6779;50.150;8.680;2022-11-03T08:18:04;9.60;99.90
13416;DHT22;6779;50.150;8.680;2022-11-03T08:20:30;9.70;99.90
13416;DHT22;6779;50.150;8.680;2022-11-03T08:22:55;9.80;1.00
13416;DHT22;6779;50.150;8.680;2022-11-03T08:25:21;9.90;93.50
13416;DHT22;6779;50.150;8.680;2022-11-03T08:27:46;10.00;14.10
13416;DHT22;6779;50.150;8.680;2022-11-03T08:30:12;10.00;99.90
13416;DHT22;6779;50.150;8.680;2022-11-03T08:32:38;10.20;99.90
13416;DHT22;6779;50.150;8.680;2022-11-03T08:35:03;10.20;99.90
13416;DHT22;6779;50.150;8.680;2022-11-03T08:37:29;10.30;99.90
13416;DHT22;6779;50.150;8.680;2022-11-03T08:39:54;10.30;1.00
13416;DHT22;6779;50.150;8.680;2022-11-03T08:42:20;10.20;1.00
13416;DHT22;6779;50.150;8.680;2022-11-03T08:44:45;10.20;62.20
13416;DHT22;6779;50.150;8.680;2022-11-03T08:47:11;10.20;1.00
13416;DHT22;6779;50.150;8.680;2022-11-03T08:49:36;10.20;1.00
13416;DHT22;6779;50.150;8.680;2022-11-03T08:52:02;10.20;1.00
13416;DHT22;6779;50.150;8.680;2022-11-03T08:54:27;10.30;99.90
13416;DHT22;6779;50.150;8.680;2022-11-03T08:56:53;10.70;99.90
13416;DHT22;6779;50.150;8.680;2022-11-03T08:59:18;10.60;1.00
13416;DHT22;6779;50.150;8.680;2022-11-03T09:01:44;10.70;99.90
13416;DHT22;6779;50.150;8.680;2022-11-03T09:04:09;10.80;99.90
13416;DHT22;6779;50.150;8.680;2022-11-03T09:06:35;10.90;99.90
13416;DHT22;6779;50.150;8.680;2022-11-03T09:09:00;10.80;99.90
13416;DHT22;6779;50.150;8.680;2022-11-03T09:11:26;11.00;1.00
13416;DHT22;6779;50.150;8.680;2022-11-03T09:13:51;11.10;99.90
13416;DHT22;6779;50.150;8.680;2022-11-03T09:16:17;11.20;32.30
13416;DHT22;6779;50.150;8.680;2022-11-03T09:18:42;11.20;1.00
13416;DHT22;6779;50.150;8.680;2022-11-03T09:21:08;11.30;81.20
13416;DHT22;6779;50.150;8.680;2022-11-03T09:23:33;11.40;1.00
13416;DHT22;6779;50.150;8.680;2022-11-03T09:25:59;11.60;99.90
13416;DHT22;6779;50.150;8.680;2022-11-03T09:28:24;11.70;1.00
13416;DHT22;6779;50.150;8.680;2022-11-03T09:30:50;11.70;1.00
13416;DHT22;6779;50.150;8.680;2022-11-03T09:33:15;11.80;99.90
13416;DHT22;6779;50.150;8.680;2022-11-03T09:35:41;11.90;1.00
13416;DHT22;6779;50.150;8.680;2022-11-03T09:38:06;12.00;1.00
13416;DHT22;6779;50.150;8.680;2022-11-03T09:40:33;12.00;99.90
13416;DHT22;6779;50.150;8.680;2022-11-03T09:43:00;12.30;99.90
13416;DHT22;6779;50.150;8.680;2022-11-03T09:45:25;12.30;99.90
13416;DHT22;6779;50.150;8.680;2022-11-03T09:47:51;12.60;99.90
13416;DHT22;6779;50.150;8.680;2022-11-03T09:50:18;12.60;71.10
13416;DHT22;6779;50.150;8.680;2022-11-03T09:52:45;12.60;15.40
13416;DHT22;6779;50.150;8.680;2022-11-03T09:55:16;12.70;99.90
13416;DHT22;6779;50.150;8.680;2022-11-03T09:57:42;12.60;18.90
13416;DHT22;6779;50.150;8.680;2022-11-03T10:00:17;12.80;1.00
13416;DHT22;6779;50.150;8.680;2022-11-03T10:02:43;12.80;99.90
13416;DHT22;6779;50.150;8.680;2022-11-03T10:05:13;12.90;1.00
13416;DHT22;6779;50.150;8.680;2022-11-03T10:07:41;12.90;1.00
13416;DHT22;6779;50.150;8.680;2022-11-03T10:10:14;13.00;73.80
13416;DHT22;6779;50.150;8.680;2022-11-03T10:12:41;13.20;99.90
13416;DHT22;6779;50.150;8.680;2022-11-03T10:15:13;13.20;1.00
13416;DHT22;6779;50.150;8.680;2022-11-03T10:17:40;13.30;1.00
13416;DHT22;6779;50.150;8.680;2022-11-03T10:20:10;13.30;1.00
13416;DHT22;6779;50.150;8.680;2022-11-03T10:22:36;13.40;99.90
13416;DHT22;6779;50.150;8.680;2022-11-03T10:25:28;13.50;99.90
13416;DHT22;6779;50.150;8.680;2022-11-03T10:30:54;13.70;99.90
13416;DHT22;6779;50.150;8.680;2022-11-03T10:33:31;14.00;99.90
13416;DHT22;6779;50.150;8.680;2022-11-03T10:35:59;14.40;99.90
13416;DHT22;6779;50.150;8.680;2022-11-03T10:38:33;14.30;99.90
13416;DHT22;6779;50.150;8.680;2022-11-03T10:41:09;14.40;99.90
13416;DHT22;6779;50.150;8.680;2022-11-03T10:43:36;14.50;99.90
13416;DHT22;6779;50.150;8.680;2022-11-03T10:46:19;14.40;99.90
13416;DHT22;6779;50.150;8.680;2022-11-03T10:49:04;14.30;99.90
13416;DHT22;6779;50.150;8.680;2022-11-03T10:51:33;14.20;99.90
13416;DHT22;6779;50.150;8.680;2022-11-03T10:53:59;14.70;99.90
13416;DHT22;6779;50.150;8.680;2022-11-03T10:56:25;15.40;99.90
13416;DHT22;6779;50.150;8.680;2022-11-03T10:58:51;14.90;99.90
13416;DHT22;6779;50.150;8.680;2022-11-03T11:01:17;14.60;99.90
13416;DHT22;6779;50.150;8.680;2022-11-03T11:03:43;14.40;99.90
13416;DHT22;6779;50.150;8.680;2022-11-03T11:06:28;14.10;99.90
13416;DHT22;6779;50.150;8.680;2022-11-03T11:09:00;14.00;1.00
13416;DHT22;6779;50.150;8.680;2022-11-03T11:11:26;13.80;99.90
13416;DHT22;6779;50.150;8.680;2022-11-03T11:14:20;13.70;1.00
13416;DHT22;6779;50.150;8.680;2022-11-03T11:16:51;13.60;1.00
13416;DHT22;6779;50.150;8.680;2022-11-03T11:19:17;13.60;23.10
13416;DHT22;6779;50.150;8.680;2022-11-03T11:24:09;13.60;1.00
13416;DHT22;6779;50.150;8.680;2022-11-03T11:26:35;13.60;1.00
13416;DHT22;6779;50.150;8.680;2022-11-03T11:31:34;13.60;32.30
13416;DHT22;6779;50.150;8.680;2022-11-03T11:36:35;13.70;1.00
13416;DHT22;6779;50.150;8.680;2022-11-03T11:39:02;13.80;1.00
13416;DHT22;6779;50.150;8.680;2022-11-03T11:42:04;13.80;1.00
13416;DHT22;6779;50.150;8.680;2022-11-03T11:52:46;13.70;1.00
13416;DHT22;6779;50.150;8.680;2022-11-03T11:58:41;13.90;1.00
13416;DHT22;6779;50.150;8.680;2022-11-03T12:03:56;13.60;1.00
13416;DHT22;6779;50.150;8.680;2022-11-03T12:06:51;13.50;1.00
13416;DHT22;6779;50.150;8.680;2022-11-03T12:09:22;13.60;1.00
13416;DHT22;6779;50.150;8.680;2022-11-03T12:11:50;13.60;2.40
13416;DHT22;6779;50.150;8.680;2022-11-03T12:16:56;13.70;1.00
13416;DHT22;6779;50.150;8.680;2022-11-03T12:19:42;13.60;90.80
13416;DHT22;6779;50.150;8.680;2022-11-03T12:24:55;13.70;61.80
13416;DHT22;6779;50.150;8.680;2022-11-03T12:32:20;13.80;1.00
13416;DHT22;6779;50.150;8.680;2022-11-03T12:34:45;13.70;99.90
13416;DHT22;6779;50.150;8.680;2022-11-03T12:37:11;13.80;99.90
13416;DHT22;6779;50.150;8.680;2022-11-03T12:39:37;13.70;99.90
13416;DHT22;6779;50.150;8.680;2022-11-03T12:42:03;13.60;99.90
13416;DHT22;6779;50.150;8.680;2022-11-03T12:44:29;13.50;1.00
13416;DHT22;6779;50.150;8.680;2022-11-03T12:46:54;13.50;1.00
13416;DHT22;6779;50.150;8.680;2022-11-03T12:49:20;13.40;99.90
13416;DHT22;6779;50.150;8.680;2022-11-03T12:51:45;13.50;99.90
13416;DHT22;6779;50.150;8.680;2022-11-03T12:54:11;13.60;99.90
13416;DHT22;6779;50.150;8.680;2022-11-03T12:56:37;13.60;99.90
13416;DHT22;6779;50.150;8.680;2022-11-03T12:59:02;13.70;99.90
13416;DHT22;6779;50.150;8.680;2022-11-03T13:01:28;13.70;99.60
13416;DHT22;6779;50.150;8.680;2022-11-03T13:03:53;13.70;99.90
13416;DHT22;6779;50.150;8.680;2022-11-03T13:06:19;13.80;99.90
13416;DHT22;6779;50.150;8.680;2022-11-03T13:08:45;13.60;99.90
13416;DHT22;6779;50.150;8.680;2022-11-03T13:11:10;13.50;99.90
13416;DHT22;6779;50.150;8.680;2022-11-03T13:13:55;13.50;99.90
13416;DHT22;6779;50.150;8.680;2022-11-03T13:16:21;13.40;1.00
13416;DHT22;6779;50.150;8.680;2022-11-03T13:18:47;13.40;99.90
13416;DHT22;6779;50.150;8.680;2022-11-03T13:21:12;13.50;99.90
13416;DHT22;6779;50.150;8.680;2022-11-03T13:23:39;13.50;1.00
13416;DHT22;6779;50.150;8.680;2022-11-03T13:26:05;13.50;1.00
13416;DHT22;6779;50.150;8.680;2022-11-03T13:28:30;13.50;1.00
13416;DHT22;6779;50.150;8.680;2022-11-03T13:30:56;13.50;1.00
13416;DHT22;6779;50.150;8.680;2022-11-03T13:33:21;13.60;89.80
13416;DHT22;6779;50.150;8.680;2022-11-03T13:35:47;13.60;99.90
13416;DHT22;6779;50.150;8.680;2022-11-03T13:38:13;13.60;99.90
13416;DHT22;6779;50.150;8.680;2022-11-03T13:40:38;13.60;1.00
13416;DHT22;6779;50.150;8.680;2022-11-03T13:43:04;13.50;1.00
13416;DHT22;6779;50.150;8.680;2022-11-03T13:45:29;13.50;99.90
13416;DHT22;6779;50.150;8.680;2022-11-03T13:47:55;13.60;34.70
13416;DHT22;6779;50.150;8.680;2022-11-03T13:50:21;13.50;1.00
13416;DHT22;6779;50.150;8.680;2022-11-03T13:52:48;13.40;11.30
13416;DHT22;6779;50.150;8.680;2022-11-03T13:55:13;13.40;1.00
13416;DHT22;6779;50.150;8.680;2022-11-03T13:57:39;13.40;99.90
13416;DHT22;6779;50.150;8.680;2022-11-03T14:00:05;13.40;99.90
13416;DHT22;6779;50.150;8.680;2022-11-03T14:02:32;13.40;99.90
13416;DHT22;6779;50.150;8.680;2022-11-03T14:04:57;13.40;1.00
13416;DHT22;6779;50.150;8.680;2022-11-03T14:07:23;13.40;99.90
13416;DHT22;6779;50.150;8.680;2022-11-03T14:09:48;13.40;1.00
13416;DHT22;6779;50.150;8.680;2022-11-03T14:12:14;13.40;99.90
13416;DHT22;6779;50.150;8.680;2022-11-03T14:15:04;13.40;53.60
13416;DHT22;6779;50.150;8.680;2022-11-03T14:17:32;13.40;99.90
13416;DHT22;6779;50.150;8.680;2022-11-03T14:19:57;13.50;99.90
13416;DHT22;6779;50.150;8.680;2022-11-03T14:22:23;13.40;99.90
13416;DHT22;6779;50.150;8.680;2022-11-03T14:24:50;13.40;99.90
13416;DHT22;6779;50.150;8.680;2022-11-03T14:27:16;13.40;1.00
13416;DHT22;6779;50.150;8.680;2022-11-03T14:29:42;13.40;99.90
13416;DHT22;6779;50.150;8.680;2022-11-03T14:32:09;13.40;1.00
13416;DHT22;6779;50.150;8.680;2022-11-03T14:34:35;13.40;99.90
13416;DHT22;6779;50.150;8.680;2022-11-03T14:37:00;13.40;99.90
13416;DHT22;6779;50.150;8.680;2022-11-03T14:39:26;13.40;99.90
13416;DHT22;6779;50.150;8.680;2022-11-03T14:41:52;13.40;99.90
13416;DHT22;6779;50.150;8.680;2022-11-03T14:44:35;13.40;1.00
13416;DHT22;6779;50.150;8.680;2022-11-03T14:47:02;13.40;99.90
13416;DHT22;6779;50.150;8.680;2022-11-03T14:49:28;13.30;99.90
13416;DHT22;6779;50.150;8.680;2022-11-03T14:51:55;13.30;99.90
13416;DHT22;6779;50.150;8.680;2022-11-03T14:54:24;13.30;99.90
13416;DHT22;6779;50.150;8.680;2022-11-03T14:56:50;13.30;99.90
13416;DHT22;6779;50.150;8.680;2022-11-03T14:59:16;13.30;1.00
13416;DHT22;6779;50.150;8.680;2022-11-03T15:01:42;13.30;1.00
13416;DHT22;6779;50.150;8.680;2022-11-03T15:04:07;13.30;1.00
13416;DHT22;6779;50.150;8.680;2022-11-03T15:06:34;13.20;1.00
13416;DHT22;6779;50.150;8.680;2022-11-03T15:09:00;13.20;98.00
13416;DHT22;6779;50.150;8.680;2022-11-03T15:11:25;13.10;99.90
13416;DHT22;6779;50.150;8.680;2022-11-03T15:13:51;13.10;93.00
13416;DHT22;6779;50.150;8.680;2022-11-03T15:16:18;13.10;20.10
13416;DHT22;6779;50.150;8.680;2022-11-03T15:18:44;13.20;35.60
13416;DHT22;6779;50.150;8.680;2022-11-03T15:21:09;13.20;99.90
13416;DHT22;6779;50.150;8.680;2022-11-03T15:23:35;13.20;99.90
13416;DHT22;6779;50.150;8.680;2022-11-03T15:26:01;13.20;99.90
13416;DHT22;6779;50.150;8.680;2022-11-03T15:28:26;13.20;99.90
13416;DHT22;6779;50.150;8.680;2022-11-03T15:30:52;13.20;99.90
13416;DHT22;6779;50.150;8.680;2022-11-03T15:33:17;13.10;99.90
13416;DHT22;6779;50.150;8.680;2022-11-03T15:35:43;13.20;99.90
13416;DHT22;6779;50.150;8.680;2022-11-03T15:38:09;13.10;99.90
13416;DHT22;6779;50.150;8.680;2022-11-03T15:40:34;13.10;99.90
13416;DHT22;6779;50.150;8.680;2022-11-03T15:43:00;13.00;99.90
13416;DHT22;6779;50.150;8.680;2022-11-03T15:45:25;13.00;99.90
13416;DHT22;6779;50.150;8.680;2022-11-03T15:47:51;13.00;99.90
13416;DHT22;6779;50.150;8.680;2022-11-03T15:50:16;12.90;99.90
13416;DHT22;6779;50.150;8.680;2022-11-03T15:52:42;12.90;99.90
13416;DHT22;6779;50.150;8.680;2022-11-03T15:55:08;12.80;25.20
13416;DHT22;6779;50.150;8.680;2022-11-03T15:57:34;12.70;1.00
13416;DHT22;6779;50.150;8.680;2022-11-03T16:00:00;12.70;99.90
13416;DHT22;6779;50.150;8.680;2022-11-03T16:02:26;12.60;52.30
13416;DHT22;6779;50.150;8.680;2022-11-03T16:04:51;12.60;1.00
13416;DHT22;6779;50.150;8.680;2022-11-03T16:07:17;12.60;99.90
13416;DHT22;6779;50.150;8.680;2022-11-03T16:09:42;12.50;1.00
13416;DHT22;6779;50.150;8.680;2022-11-03T16:12:08;12.50;99.90
13416;DHT22;6779;50.150;8.680;2022-11-03T16:14:33;12.40;99.90
13416;DHT22;6779;50.150;8.680;2022-11-03T16:16:59;12.40;99.90
13416;DHT22;6779;50.150;8.680;2022-11-03T16:19:24;12.40;99.90
13416;DHT22;6779;50.150;8.680;2022-11-03T16:21:50;12.40;99.90
13416;DHT22;6779;50.150;8.680;2022-11-03T16:24:16;12.40;99.90
13416;DHT22;6779;50.150;8.680;2022-11-03T16:26:42;12.40;99.90
13416;DHT22;6779;50.150;8.680;2022-11-03T16:29:07;12.40;99.90
13416;DHT22;6779;50.150;8.680;2022-11-03T16:31:33;12.40;99.90
13416;DHT22;6779;50.150;8.680;2022-11-03T16:33:59;12.30;99.90
13416;DHT22;6779;50.150;8.680;2022-11-03T16:36:25;12.40;99.90
13416;DHT22;6779;50.150;8.680;2022-11-03T16:38:50;12.40;1.00
13416;DHT22;6779;50.150;8.680;2022-11-03T16:41:16;12.30;1.00
13416;DHT22;6779;50.150;8.680;2022-11-03T16:43:41;12.30;1.00
13416;DHT22;6779;50.150;8.680;2022-11-03T16:46:07;12.30;1.00
13416;DHT22;6779;50.150;8.680;2022-11-03T16:48:32;12.20;15.90
13416;DHT22;6779;50.150;8.680;2022-11-03T16:50:58;12.20;10.80
13416;DHT22;6779;50.150;8.680;2022-11-03T16:53:24;12.20;12.70
13416;DHT22;6779;50.150;8.680;2022-11-03T16:55:49;12.20;1.00
13416;DHT22;6779;50.150;8.680;2022-11-03T16:58:15;12.20;1.00
13416;DHT22;6779;50.150;8.680;2022-11-03T17:00:41;12.10;15.00
13416;DHT22;6779;50.150;8.680;2022-11-03T17:03:07;12.10;24.10
13416;DHT22;6779;50.150;8.680;2022-11-03T17:05:33;12.00;8.10
13416;DHT22;6779;50.150;8.680;2022-11-03T17:07:59;12.10;25.80